Terminal Aerodrome Forecast
Issued by NWS Pittsburgh, PA

Current Version | Previous Version | Graphics & Text | Print | Product List | Glossary On
Versions: 1 2 3 4 5 6 7 8 9 10 11 12 13 14 15 16 17 18 19 20 21 22 23 24 25 26 27 28 29 30 31
000
FTUS41 KPBZ 171711 AAC
TAFPIT
TAF AMD
KPIT 171711Z 1717/1818 20011G20KT P6SM VCSH BKN014 OVC024
      WS020/20035KT
     FM172100 24010G18KT P6SM OVC015
     FM180200 25008KT P6SM VCSH OVC008=

USA.gov is the U.S. government's official web portal to all federal, state and local government web resources and services.